Time;durP1;ratioP1;P1;durP2;ratioP2;P2;SDS_P1;SDS_P2;PMS_P1;PMS_P2;Temp;Humidity;BMP_temperature;BMP_pressure;BME280_temperature;BME280_humidity;BME280_pressure;Samples;Min_cycle;Max_cycle;Signal;HPM_P1;HPM_P2
2021/03/26 00:02:15;;;;;;;86.93;43.00;;;;;;;;;;5036236;28;20561;-70
2021/03/26 00:04:41;;;;;;;86.77;42.27;;;;;;;;;;5033926;28;20513;-70
2021/03/26 00:07:06;;;;;;;82.10;40.33;;;;;;;;;;5031306;28;20196;-70
2021/03/26 00:09:35;;;;;;;81.07;40.90;;;;;;;;;;5039303;28;20189;-70
2021/03/26 00:12:05;;;;;;;75.67;38.70;;;;;;;;;;5031254;28;20596;-70
2021/03/26 00:14:31;;;;;;;84.27;42.63;;;;;;;;;;5035956;28;20197;-70
2021/03/26 00:16:56;;;;;;;85.10;42.43;;;;;;;;;;5043246;28;20197;-71
2021/03/26 00:19:21;;;;;;;84.23;43.47;;;;;;;;;;5038198;28;20197;-71
2021/03/26 00:21:47;;;;;;;80.27;40.53;;;;;;;;;;5042499;28;20213;-70
2021/03/26 00:24:12;;;;;;;83.73;40.17;;;;;;;;;;5035532;28;20273;-70
2021/03/26 00:26:38;;;;;;;80.50;38.93;;;;;;;;;;5046196;28;20217;-70
2021/03/26 00:29:11;;;;;;;88.60;42.40;;;;;;;;;;5036038;28;20197;-70
2021/03/26 00:31:37;;;;;;;85.20;42.33;;;;;;;;;;5038200;28;20197;-70
2021/03/26 00:34:03;;;;;;;87.87;44.57;;;;;;;;;;5035399;28;20543;-70
2021/03/26 00:36:31;;;;;;;88.17;44.03;;;;;;;;;;5040944;28;20190;-71
2021/03/26 00:38:56;;;;;;;75.13;40.07;;;;;;;;;;5037136;28;20186;-70
2021/03/26 00:41:21;;;;;;;89.87;43.67;;;;;;;;;;5042103;28;20200;-71
2021/03/26 00:43:47;;;;;;;84.67;41.93;;;;;;;;;;5033531;28;20185;-70
2021/03/26 00:46:12;;;;;;;81.17;41.70;;;;;;;;;;5040327;28;20252;-70
2021/03/26 00:48:37;;;;;;;87.77;44.00;;;;;;;;;;5048474;28;20190;-70
2021/03/26 00:51:03;;;;;;;83.33;42.17;;;;;;;;;;5031645;28;20185;-70
2021/03/26 00:53:34;;;;;;;81.17;41.90;;;;;;;;;;5043338;28;20232;-70
2021/03/26 00:56:02;;;;;;;78.00;40.33;;;;;;;;;;5031963;28;20205;-71
2021/03/26 00:58:27;;;;;;;77.50;40.37;;;;;;;;;;5041438;28;20695;-70
2021/03/26 01:00:54;;;;;;;87.13;42.73;;;;;;;;;;5034407;28;20198;-70
2021/03/26 01:03:21;;;;;;;87.83;41.77;;;;;;;;;;5042011;28;20239;-70
2021/03/26 01:05:51;;;;;;;93.93;46.17;;;;;;;;;;5035654;28;20637;-70
2021/03/26 01:08:18;;;;;;;95.37;43.83;;;;;;;;;;5045159;28;20592;-70
2021/03/26 01:10:53;;;;;;;87.30;42.50;;;;;;;;;;5032030;28;20568;-70
2021/03/26 01:13:19;;;;;;;87.17;40.97;;;;;;;;;;5042250;28;20320;-70
2021/03/26 01:15:45;;;;;;;89.13;42.60;;;;;;;;;;5034075;28;20190;-71
2021/03/26 01:18:29;;;;;;;87.30;42.77;;;;;;;;;;5043300;28;20182;-70
2021/03/26 01:20:56;;;;;;;92.80;44.90;;;;;;;;;;5035268;28;20194;-70
2021/03/26 01:23:21;;;;;;;90.30;44.77;;;;;;;;;;5036763;28;20201;-70
2021/03/26 01:25:47;;;;;;;95.40;44.40;;;;;;;;;;5034493;28;20641;-70
2021/03/26 01:28:17;;;;;;;83.80;42.43;;;;;;;;;;5032645;28;20192;-70
2021/03/26 01:30:42;;;;;;;94.10;42.37;;;;;;;;;;5041749;28;20190;-70
2021/03/26 01:33:08;;;;;;;90.80;41.37;;;;;;;;;;5035417;28;20569;-70
2021/03/26 01:35:36;;;;;;;99.33;43.90;;;;;;;;;;5041474;28;20189;-70
2021/03/26 01:38:01;;;;;;;93.10;42.33;;;;;;;;;;5037595;28;20197;-70
2021/03/26 01:40:30;;;;;;;103.67;43.60;;;;;;;;;;5044551;28;20186;-70
2021/03/26 01:43:13;;;;;;;86.67;40.20;;;;;;;;;;5038046;28;20224;-70
2021/03/26 01:45:39;;;;;;;97.57;43.53;;;;;;;;;;5039049;28;20229;-70
2021/03/26 01:48:06;;;;;;;91.63;41.43;;;;;;;;;;5039087;28;20291;-70
2021/03/26 01:50:33;;;;;;;91.60;43.57;;;;;;;;;;5041507;28;20282;-70
2021/03/26 01:52:58;;;;;;;101.80;45.13;;;;;;;;;;5034755;28;20206;-70
2021/03/26 01:55:36;;;;;;;100.80;44.63;;;;;;;;;;5038549;28;20255;-70
2021/03/26 01:58:02;;;;;;;99.77;44.53;;;;;;;;;;5034083;28;20675;-70
2021/03/26 02:00:38;;;;;;;102.57;43.67;;;;;;;;;;5033270;28;20280;-70
2021/03/26 02:03:22;;;;;;;97.63;43.33;;;;;;;;;;5037145;28;20208;-70
2021/03/26 02:05:53;;;;;;;97.17;44.03;;;;;;;;;;5038414;28;20189;-70
2021/03/26 02:08:29;;;;;;;110.17;45.73;;;;;;;;;;5027136;28;25510;-70
2021/03/26 02:10:56;;;;;;;111.37;46.37;;;;;;;;;;5038860;28;20609;-70
2021/03/26 02:13:26;;;;;;;110.13;47.97;;;;;;;;;;5030409;28;20332;-70
2021/03/26 02:15:53;;;;;;;101.37;46.03;;;;;;;;;;5036540;28;20189;-70
2021/03/26 02:18:33;;;;;;;91.53;43.23;;;;;;;;;;5037481;28;20239;-70
2021/03/26 02:21:04;;;;;;;105.67;44.63;;;;;;;;;;5041467;28;20239;-70
2021/03/26 02:23:30;;;;;;;112.20;47.63;;;;;;;;;;5042963;28;20193;-70
2021/03/26 02:25:58;;;;;;;114.10;47.57;;;;;;;;;;5034638;28;20335;-70
2021/03/26 02:28:25;;;;;;;109.30;48.23;;;;;;;;;;5043203;28;20570;-70
2021/03/26 02:30:56;;;;;;;108.03;48.30;;;;;;;;;;5032914;28;20632;-70
2021/03/26 02:33:22;;;;;;;112.47;48.80;;;;;;;;;;5043097;28;20637;-70
2021/03/26 02:36:09;;;;;;;102.77;47.07;;;;;;;;;;5029575;28;20256;-70
2021/03/26 02:38:35;;;;;;;103.33;46.00;;;;;;;;;;5040739;28;20185;-69
2021/03/26 02:41:12;;;;;;;94.03;44.60;;;;;;;;;;5032698;28;20577;-70
2021/03/26 02:43:52;;;;;;;107.43;48.43;;;;;;;;;;5039467;28;20190;-70
2021/03/26 02:46:24;;;;;;;110.30;48.13;;;;;;;;;;5029876;28;20315;-70
2021/03/26 02:48:49;;;;;;;95.67;44.83;;;;;;;;;;5041347;28;20373;-70
2021/03/26 02:51:25;;;;;;;105.17;46.70;;;;;;;;;;5031101;28;20276;-70
2021/03/26 02:54:06;;;;;;;101.33;45.17;;;;;;;;;;5039767;28;20240;-70
2021/03/26 02:56:40;;;;;;;106.37;46.97;;;;;;;;;;5028980;28;20185;-70
2021/03/26 02:59:18;;;;;;;101.53;46.23;;;;;;;;;;5032646;28;20201;-70
2021/03/26 03:01:48;;;;;;;98.30;46.30;;;;;;;;;;5025790;28;20197;-70
2021/03/26 03:04:26;;;;;;;94.00;43.60;;;;;;;;;;5038186;28;20201;-70
2021/03/26 03:06:57;;;;;;;98.67;47.00;;;;;;;;;;5034048;28;20193;-70
2021/03/26 03:09:26;;;;;;;88.67;43.60;;;;;;;;;;5037033;28;20190;-70
2021/03/26 03:11:54;;;;;;;91.53;44.73;;;;;;;;;;5029264;28;20218;-70
2021/03/26 03:14:43;;;;;;;85.53;41.70;;;;;;;;;;5037698;28;20217;-70
2021/03/26 03:17:21;;;;;;;91.90;45.10;;;;;;;;;;5032863;28;20205;-70
2021/03/26 03:20:05;;;;;;;86.77;43.27;;;;;;;;;;5037442;28;20193;-70
2021/03/26 03:22:41;;;;;;;84.23;42.30;;;;;;;;;;5030784;28;20543;-70
2021/03/26 03:25:11;;;;;;;77.60;39.97;;;;;;;;;;5039124;28;20280;-70
2021/03/26 03:27:39;;;;;;;75.97;38.30;;;;;;;;;;5033772;28;20276;-70
2021/03/26 03:30:16;;;;;;;80.90;38.67;;;;;;;;;;5033966;28;20200;-70
2021/03/26 03:33:06;;;;;;;75.30;40.07;;;;;;;;;;5030533;28;20213;-70
2021/03/26 03:35:41;;;;;;;81.50;40.83;;;;;;;;;;5039187;28;20182;-70
2021/03/26 03:38:09;;;;;;;71.97;39.53;;;;;;;;;;5034001;28;20197;-70
2021/03/26 03:40:45;;;;;;;75.60;39.47;;;;;;;;;;5034937;28;20260;-70
2021/03/26 03:43:18;;;;;;;77.40;38.97;;;;;;;;;;5036859;28;20544;-70
2021/03/26 03:45:52;;;;;;;78.23;39.60;;;;;;;;;;5037113;28;20656;-70
2021/03/26 03:48:27;;;;;;;73.07;37.63;;;;;;;;;;5032643;28;20355;-70
2021/03/26 03:51:25;;;;;;;67.13;36.87;;;;;;;;;;5036950;28;20236;-70
2021/03/26 03:54:24;;;;;;;74.60;37.60;;;;;;;;;;5038978;28;20584;-70
2021/03/26 03:56:57;;;;;;;64.83;34.30;;;;;;;;;;5040632;28;21159;-70
2021/03/26 03:59:40;;;;;;;71.60;36.47;;;;;;;;;;5033486;28;20561;-69
2021/03/26 04:02:42;;;;;;;73.67;37.50;;;;;;;;;;5034141;28;20233;-70
2021/03/26 04:05:26;;;;;;;71.60;36.67;;;;;;;;;;5028527;28;20261;-70
2021/03/26 04:07:58;;;;;;;67.33;35.30;;;;;;;;;;5037132;28;20194;-70
2021/03/26 04:10:25;;;;;;;60.77;32.87;;;;;;;;;;5029324;28;20193;-70
2021/03/26 04:12:54;;;;;;;68.33;37.00;;;;;;;;;;5040658;28;20691;-70
2021/03/26 04:15:26;;;;;;;62.03;33.67;;;;;;;;;;5038644;28;20193;-70
2021/03/26 04:18:01;;;;;;;59.67;32.90;;;;;;;;;;5046671;28;20189;-70
2021/03/26 04:20:35;;;;;;;60.53;32.37;;;;;;;;;;5034616;28;20283;-69
2021/03/26 04:23:25;;;;;;;64.00;35.13;;;;;;;;;;5045765;28;20625;-70
2021/03/26 04:26:08;;;;;;;58.97;33.47;;;;;;;;;;5036131;28;20280;-70
2021/03/26 04:28:38;;;;;;;68.63;36.37;;;;;;;;;;5041982;28;20195;-70
2021/03/26 04:31:14;;;;;;;68.77;34.30;;;;;;;;;;5035746;28;20200;-70
2021/03/26 04:33:39;;;;;;;68.03;36.17;;;;;;;;;;5042881;28;20287;-70
2021/03/26 04:36:07;;;;;;;70.57;36.47;;;;;;;;;;5035338;28;20276;-70
2021/03/26 04:38:47;;;;;;;67.83;34.30;;;;;;;;;;5044319;28;20186;-70
2021/03/26 04:41:23;;;;;;;63.53;34.07;;;;;;;;;;5035590;28;20327;-70
2021/03/26 04:44:06;;;;;;;63.70;34.30;;;;;;;;;;5038304;28;20230;-70
2021/03/26 04:46:39;;;;;;;65.50;34.40;;;;;;;;;;5034713;28;20287;-70
2021/03/26 04:49:26;;;;;;;71.33;37.30;;;;;;;;;;5039910;28;20201;-70
2021/03/26 04:52:00;;;;;;;61.67;34.37;;;;;;;;;;5035154;28;20196;-71
2021/03/26 04:54:38;;;;;;;66.70;36.10;;;;;;;;;;5043051;28;20648;-70
2021/03/26 04:57:09;;;;;;;70.77;36.90;;;;;;;;;;5032997;28;20201;-70
2021/03/26 05:00:07;;;;;;;68.87;36.83;;;;;;;;;;5041121;28;20583;-71
2021/03/26 05:02:33;;;;;;;70.90;37.13;;;;;;;;;;5032779;28;20679;-71
2021/03/26 05:05:01;;;;;;;68.80;37.77;;;;;;;;;;5040314;28;20209;-71
2021/03/26 05:07:34;;;;;;;71.27;38.67;;;;;;;;;;5032529;28;20287;-70
2021/03/26 05:10:06;;;;;;;75.17;38.27;;;;;;;;;;5045618;28;20189;-70
2021/03/26 05:12:35;;;;;;;68.90;34.53;;;;;;;;;;5034670;28;20216;-70
2021/03/26 05:15:06;;;;;;;70.40;36.30;;;;;;;;;;5039039;28;20189;-70
2021/03/26 05:17:51;;;;;;;73.67;39.13;;;;;;;;;;5035493;28;20186;-70
2021/03/26 05:20:27;;;;;;;70.67;38.53;;;;;;;;;;5044299;28;20185;-70
2021/03/26 05:23:20;;;;;;;71.97;37.10;;;;;;;;;;5036192;28;20192;-70
2021/03/26 05:25:48;;;;;;;68.00;36.60;;;;;;;;;;5044336;28;20197;-70
2021/03/26 05:28:23;;;;;;;82.27;39.63;;;;;;;;;;5031709;28;20199;-70
2021/03/26 05:30:49;;;;;;;67.03;35.93;;;;;;;;;;5037735;28;20203;-70
2021/03/26 05:33:26;;;;;;;71.43;37.00;;;;;;;;;;5032689;28;20272;-70
2021/03/26 05:35:54;;;;;;;66.30;36.20;;;;;;;;;;5042712;28;20190;-70
2021/03/26 05:38:24;;;;;;;65.60;34.50;;;;;;;;;;5031091;28;20586;-70
2021/03/26 05:40:52;;;;;;;70.77;37.43;;;;;;;;;;5043131;28;20201;-70
2021/03/26 05:43:49;;;;;;;69.80;37.07;;;;;;;;;;5038054;28;20604;-70
2021/03/26 05:46:46;;;;;;;68.40;35.57;;;;;;;;;;5036832;28;20739;-70
2021/03/26 05:49:30;;;;;;;68.90;35.77;;;;;;;;;;5033941;28;20190;-70
2021/03/26 05:52:04;;;;;;;58.10;33.27;;;;;;;;;;5038487;28;20200;-70
2021/03/26 05:55:07;;;;;;;67.00;36.40;;;;;;;;;;5032826;28;20205;-70
2021/03/26 05:58:06;;;;;;;56.50;32.30;;;;;;;;;;5021076;28;20288;-70
2021/03/26 06:00:54;;;;;;;66.50;33.13;;;;;;;;;;5035682;28;20529;-70
2021/03/26 06:03:28;;;;;;;58.90;32.87;;;;;;;;;;5042176;28;20217;-70
2021/03/26 06:06:02;;;;;;;65.87;33.73;;;;;;;;;;5035610;28;20311;-70
2021/03/26 06:08:55;;;;;;;57.27;33.50;;;;;;;;;;5036250;28;20208;-70
2021/03/26 06:11:37;;;;;;;62.50;34.77;;;;;;;;;;5028257;28;20225;-69
2021/03/26 06:14:08;;;;;;;61.33;33.77;;;;;;;;;;5041692;28;20289;-70
2021/03/26 06:16:55;;;;;;;58.27;33.07;;;;;;;;;;5025817;28;20185;-70
2021/03/26 06:19:47;;;;;;;54.97;31.43;;;;;;;;;;5033873;28;20201;-70
2021/03/26 06:22:15;;;;;;;54.70;30.97;;;;;;;;;;5032127;28;20659;-71
2021/03/26 06:25:17;;;;;;;60.00;33.57;;;;;;;;;;5037047;28;20197;-70
2021/03/26 06:28:00;;;;;;;60.30;31.70;;;;;;;;;;5029891;28;20195;-71
2021/03/26 06:30:47;;;;;;;60.90;34.03;;;;;;;;;;5035181;28;20654;-69
2021/03/26 06:33:52;;;;;;;59.83;34.23;;;;;;;;;;5033399;28;20305;-69
2021/03/26 06:36:23;;;;;;;57.60;32.03;;;;;;;;;;5025240;28;20189;-71
2021/03/26 06:39:26;;;;;;;59.92;31.80;;;;;;;;;;5038370;28;20178;-70
2021/03/26 06:42:17;;;;;;;57.67;33.03;;;;;;;;;;5026473;28;20196;-71
2021/03/26 06:45:07;;;;;;;52.77;31.53;;;;;;;;;;5039396;28;20218;-71
2021/03/26 06:48:05;;;;;;;59.47;32.90;;;;;;;;;;5028662;28;20190;-70
2021/03/26 06:50:45;;;;;;;57.07;32.43;;;;;;;;;;5038723;28;20633;-69
2021/03/26 06:53:26;;;;;;;51.33;30.87;;;;;;;;;;5029519;28;20209;-72
2021/03/26 06:55:58;;;;;;;55.50;32.83;;;;;;;;;;5037064;28;20676;-72
2021/03/26 06:58:41;;;;;;;55.53;31.10;;;;;;;;;;5026476;28;20197;-70
2021/03/26 07:01:28;;;;;;;54.07;32.67;;;;;;;;;;4334774;28;10000721;-72
2021/03/26 07:04:12;;;;;;;58.67;32.33;;;;;;;;;;5020315;28;20205;-72
2021/03/26 07:07:06;;;;;;;55.87;32.00;;;;;;;;;;5032114;28;20203;-72
2021/03/26 07:09:53;;;;;;;50.40;31.10;;;;;;;;;;5022491;28;20205;-72
2021/03/26 07:12:30;;;;;;;53.77;31.10;;;;;;;;;;5030459;28;20192;-72
2021/03/26 07:15:07;;;;;;;52.43;30.37;;;;;;;;;;5024753;28;20425;-72
2021/03/26 07:17:44;;;;;;;50.63;30.67;;;;;;;;;;5033513;28;20193;-72
2021/03/26 07:20:12;;;;;;;50.22;28.75;;;;;;;;;;5027756;28;20845;-72
2021/03/26 07:22:59;;;;;;;49.83;29.00;;;;;;;;;;5034147;28;20194;-72
2021/03/26 07:25:28;;;;;;;48.95;28.75;;;;;;;;;;5031439;28;20196;-72
2021/03/26 07:28:30;;;;;;;53.70;29.30;;;;;;;;;;5033597;28;20244;-72
2021/03/26 07:31:24;;;;;;;47.05;28.02;;;;;;;;;;5032509;28;20257;-72
2021/03/26 07:34:26;;;;;;;46.53;28.48;;;;;;;;;;5035217;28;20701;-72
2021/03/26 07:37:19;;;;;;;51.67;28.38;;;;;;;;;;5039071;28;20192;-72
2021/03/26 07:40:22;;;;;;;46.78;27.30;;;;;;;;;;5031387;28;20200;-72
2021/03/26 07:43:38;;;;;;;47.58;27.70;;;;;;;;;;5036868;28;20589;-72
2021/03/26 07:46:35;;;;;;;43.55;26.40;;;;;;;;;;5008612;28;20226;-72
2021/03/26 07:49:31;;;;;;;44.45;25.80;;;;;;;;;;5040592;28;20177;-72
2021/03/26 07:52:23;;;;;;;42.90;25.27;;;;;;;;;;5030162;28;20198;-72
2021/03/26 07:55:24;;;;;;;46.67;27.25;;;;;;;;;;5046056;28;20661;-72
2021/03/26 07:58:20;;;;;;;41.45;25.77;;;;;;;;;;5036845;28;20197;-69
2021/03/26 08:00:54;;;;;;;39.80;25.73;;;;;;;;;;5024954;28;20193;-72
2021/03/26 08:03:49;;;;;;;39.00;24.08;;;;;;;;;;5041892;28;20208;-70
2021/03/26 08:06:39;;;;;;;41.40;26.17;;;;;;;;;;5029387;28;20723;-70
2021/03/26 08:09:41;;;;;;;40.90;24.55;;;;;;;;;;5035046;28;20244;-70
2021/03/26 08:12:10;;;;;;;44.67;25.83;;;;;;;;;;5028749;28;20203;-70
2021/03/26 08:15:13;;;;;;;43.90;25.85;;;;;;;;;;5038811;28;20315;-72
2021/03/26 08:17:51;;;;;;;45.30;27.50;;;;;;;;;;5028853;28;20551;-70
2021/03/26 08:20:25;;;;;;;40.63;24.90;;;;;;;;;;5035136;28;20335;-72
2021/03/26 08:23:08;;;;;;;39.33;24.73;;;;;;;;;;5030143;28;20200;-72
2021/03/26 08:25:36;;;;;;;38.33;24.80;;;;;;;;;;5040544;28;20203;-72
2021/03/26 08:28:44;;;;;;;39.53;24.58;;;;;;;;;;5031875;28;20185;-72
2021/03/26 08:31:18;;;;;;;44.70;25.00;;;;;;;;;;5034376;28;20208;-70
2021/03/26 08:34:14;;;;;;;38.83;23.83;;;;;;;;;;5031930;28;20701;-71
2021/03/26 08:36:49;;;;;;;41.53;24.23;;;;;;;;;;5038983;28;20622;-71
2021/03/26 08:39:20;;;;;;;39.80;23.92;;;;;;;;;;5028589;28;20192;-70
2021/03/26 08:42:03;;;;;;;40.55;24.15;;;;;;;;;;5039738;28;20193;-70
2021/03/26 08:44:31;;;;;;;38.38;22.83;;;;;;;;;;5031365;28;20281;-71
2021/03/26 08:46:58;;;;;;;36.78;22.90;;;;;;;;;;5042063;28;20562;-71
2021/03/26 08:49:24;;;;;;;39.42;24.42;;;;;;;;;;5031944;28;20190;-71
2021/03/26 08:52:08;;;;;;;38.42;23.90;;;;;;;;;;5037532;28;20205;-71
2021/03/26 08:55:06;;;;;;;36.38;24.05;;;;;;;;;;5032760;28;20815;-71
2021/03/26 08:57:57;;;;;;;37.15;22.90;;;;;;;;;;5036700;28;20576;-71
2021/03/26 09:00:35;;;;;;;35.28;22.52;;;;;;;;;;5034057;28;20705;-71
2021/03/26 09:03:38;;;;;;;33.60;22.55;;;;;;;;;;5037941;28;20205;-71
2021/03/26 09:06:35;;;;;;;36.05;22.75;;;;;;;;;;5042250;28;20206;-71
2021/03/26 09:09:34;;;;;;;34.90;21.95;;;;;;;;;;5029451;28;20190;-71
2021/03/26 09:12:23;;;;;;;35.22;21.60;;;;;;;;;;5042092;28;20200;-70
2021/03/26 09:15:11;;;;;;;32.10;20.98;;;;;;;;;;5033229;28;20216;-71
2021/03/26 09:17:53;;;;;;;33.60;20.73;;;;;;;;;;5040295;28;20285;-71
2021/03/26 09:20:43;;;;;;;29.80;19.17;;;;;;;;;;5033885;28;20189;-71
2021/03/26 09:23:27;;;;;;;35.17;20.80;;;;;;;;;;5038599;28;20182;-71
2021/03/26 09:25:59;;;;;;;32.65;21.00;;;;;;;;;;5030855;28;20189;-71
2021/03/26 09:28:33;;;;;;;34.17;19.35;;;;;;;;;;5033635;28;20242;-71
2021/03/26 09:31:10;;;;;;;30.25;18.33;;;;;;;;;;5027427;28;20212;-71
2021/03/26 09:33:38;;;;;;;28.67;17.40;;;;;;;;;;5038951;28;20206;-72
2021/03/26 09:36:08;;;;;;;26.92;17.75;;;;;;;;;;5033138;28;20200;-72
2021/03/26 09:38:48;;;;;;;30.75;19.05;;;;;;;;;;5033603;28;20219;-71
2021/03/26 09:41:29;;;;;;;29.13;17.95;;;;;;;;;;5029588;28;20197;-70
2021/03/26 09:44:06;;;;;;;26.13;17.15;;;;;;;;;;5041273;28;20405;-71
2021/03/26 09:46:47;;;;;;;31.58;17.85;;;;;;;;;;5033938;28;20672;-73
2021/03/26 09:49:33;;;;;;;34.13;16.90;;;;;;;;;;5043159;28;20480;-71
2021/03/26 09:52:23;;;;;;;30.02;16.75;;;;;;;;;;5031036;28;20201;-71
2021/03/26 09:54:52;;;;;;;26.45;14.93;;;;;;;;;;5033537;28;20225;-70
2021/03/26 09:57:48;;;;;;;22.08;13.88;;;;;;;;;;5029737;28;20189;-71
2021/03/26 10:00:33;;;;;;;21.73;12.90;;;;;;;;;;5038158;28;20189;-71
2021/03/26 10:03:19;;;;;;;21.17;12.98;;;;;;;;;;5028682;28;20193;-72
2021/03/26 10:06:06;;;;;;;22.58;12.25;;;;;;;;;;5038231;28;20198;-72
2021/03/26 10:08:51;;;;;;;20.75;11.23;;;;;;;;;;5032999;28;20185;-72
2021/03/26 10:11:23;;;;;;;18.30;10.10;;;;;;;;;;5037025;28;20281;-72
2021/03/26 10:14:03;;;;;;;18.15;10.77;;;;;;;;;;5030284;28;20205;-72
2021/03/26 10:16:58;;;;;;;16.55;9.93;;;;;;;;;;5037767;28;20225;-72
2021/03/26 10:19:31;;;;;;;20.20;10.38;;;;;;;;;;5031795;28;20220;-72
2021/03/26 10:21:58;;;;;;;21.48;9.45;;;;;;;;;;5040079;28;20189;-70
2021/03/26 10:24:26;;;;;;;13.40;8.05;;;;;;;;;;5026622;28;20262;-73
2021/03/26 10:26:57;;;;;;;15.05;8.48;;;;;;;;;;5038487;28;20508;-71
2021/03/26 10:29:36;;;;;;;15.13;8.07;;;;;;;;;;5024771;28;20193;-71
2021/03/26 10:32:16;;;;;;;17.45;7.80;;;;;;;;;;5034961;28;20181;-72
2021/03/26 10:34:44;;;;;;;20.17;9.20;;;;;;;;;;5032129;28;20209;-72
2021/03/26 10:37:55;;;;;;;16.80;9.65;;;;;;;;;;5041028;28;20645;-72
2021/03/26 10:40:34;;;;;;;19.27;9.70;;;;;;;;;;5032502;28;20189;-72
2021/03/26 10:43:23;;;;;;;13.10;8.55;;;;;;;;;;5038473;28;20192;-72
2021/03/26 10:46:00;;;;;;;16.92;9.45;;;;;;;;;;5030373;28;20556;-72
2021/03/26 10:48:44;;;;;;;17.88;9.25;;;;;;;;;;5042843;28;20521;-72
2021/03/26 10:51:33;;;;;;;14.68;8.23;;;;;;;;;;5024511;28;20569;-70
2021/03/26 10:54:05;;;;;;;15.35;8.85;;;;;;;;;;5042520;28;20213;-73
2021/03/26 10:57:01;;;;;;;16.50;8.50;;;;;;;;;;5030029;28;20270;-72
2021/03/26 10:59:51;;;;;;;15.98;9.55;;;;;;;;;;5037980;28;20178;-71
2021/03/26 11:02:25;;;;;;;15.55;9.65;;;;;;;;;;5038738;28;20181;-72
2021/03/26 11:05:02;;;;;;;18.90;10.38;;;;;;;;;;5030949;28;20209;-71
2021/03/26 11:07:34;;;;;;;15.50;8.60;;;;;;;;;;5038156;28;20181;-71
2021/03/26 11:10:02;;;;;;;17.88;8.68;;;;;;;;;;5035910;28;20258;-72
2021/03/26 11:12:40;;;;;;;14.63;8.43;;;;;;;;;;5028524;28;20194;-71
2021/03/26 11:15:06;;;;;;;13.55;7.57;;;;;;;;;;5039061;28;20231;-73
2021/03/26 11:17:54;;;;;;;15.23;7.28;;;;;;;;;;5027326;28;21602;-72
2021/03/26 11:20:29;;;;;;;10.77;6.22;;;;;;;;;;5041040;28;20280;-71
2021/03/26 11:23:01;;;;;;;10.55;5.65;;;;;;;;;;5029991;28;20211;-71
2021/03/26 11:25:33;;;;;;;11.50;5.20;;;;;;;;;;5035616;28;20189;-72
2021/03/26 11:28:00;;;;;;;12.30;6.00;;;;;;;;;;5026959;28;20185;-72
2021/03/26 11:30:50;;;;;;;12.00;6.20;;;;;;;;;;5039277;28;20189;-71
2021/03/26 11:33:25;;;;;;;9.38;5.35;;;;;;;;;;5023233;28;20211;-72
2021/03/26 11:35:55;;;;;;;9.23;4.90;;;;;;;;;;5035014;28;20200;-72
2021/03/26 11:38:26;;;;;;;12.18;4.25;;;;;;;;;;5028761;28;20185;-71
2021/03/26 11:41:10;;;;;;;10.32;4.75;;;;;;;;;;5038302;28;20194;-72
2021/03/26 11:43:48;;;;;;;7.68;4.07;;;;;;;;;;5031625;28;20654;-72
2021/03/26 11:46:17;;;;;;;10.13;3.97;;;;;;;;;;5034363;28;20346;-72
2021/03/26 11:48:59;;;;;;;11.50;4.88;;;;;;;;;;5029329;28;20197;-72
2021/03/26 11:51:37;;;;;;;10.02;4.50;;;;;;;;;;5037283;28;20182;-72
2021/03/26 11:54:31;;;;;;;11.00;4.60;;;;;;;;;;5031732;28;20300;-72
2021/03/26 11:57:26;;;;;;;11.68;4.90;;;;;;;;;;5036737;28;20197;-72
2021/03/26 12:00:13;;;;;;;8.15;4.80;;;;;;;;;;5031703;28;20185;-72
2021/03/26 12:03:18;;;;;;;12.95;4.85;;;;;;;;;;5037730;28;20174;-72
2021/03/26 12:06:18;;;;;;;8.85;4.55;;;;;;;;;;5042038;28;20200;-72
2021/03/26 12:09:05;;;;;;;11.93;5.00;;;;;;;;;;5027369;28;20189;-71
2021/03/26 12:11:33;;;;;;;10.50;5.05;;;;;;;;;;5036899;28;20202;-72
2021/03/26 12:14:21;;;;;;;10.18;4.68;;;;;;;;;;5033802;28;20228;-72
2021/03/26 12:16:59;;;;;;;6.88;4.55;;;;;;;;;;5040337;28;20185;-73
2021/03/26 12:19:25;;;;;;;8.88;4.22;;;;;;;;;;5028522;28;20200;-72
2021/03/26 12:22:08;;;;;;;9.65;4.18;;;;;;;;;;5042980;28;20177;-72
2021/03/26 12:24:48;;;;;;;10.55;4.65;;;;;;;;;;5037144;28;20186;-71
2021/03/26 12:27:34;;;;;;;9.13;4.38;;;;;;;;;;5033051;28;20597;-71
2021/03/26 12:30:28;;;;;;;9.77;4.20;;;;;;;;;;5028885;28;20204;-73
2021/03/26 12:33:01;;;;;;;7.15;3.35;;;;;;;;;;5039628;28;20174;-72
2021/03/26 12:35:35;;;;;;;9.48;4.05;;;;;;;;;;5029450;28;20190;-70
2021/03/26 12:38:26;;;;;;;11.48;4.28;;;;;;;;;;5040474;28;20292;-72
2021/03/26 12:40:55;;;;;;;8.20;3.63;;;;;;;;;;5037201;28;20714;-71
2021/03/26 12:43:29;;;;;;;8.88;3.70;;;;;;;;;;5042925;28;20636;-70
2021/03/26 12:45:59;;;;;;;8.48;3.33;;;;;;;;;;5032143;28;20240;-71
2021/03/26 12:48:37;;;;;;;8.27;3.30;;;;;;;;;;5042536;28;20213;-71
2021/03/26 12:51:11;;;;;;;7.93;3.15;;;;;;;;;;5031575;28;20193;-71
2021/03/26 12:53:46;;;;;;;8.07;3.40;;;;;;;;;;5044986;28;20284;-71
2021/03/26 12:56:17;;;;;;;8.73;3.00;;;;;;;;;;5026602;28;20649;-70
2021/03/26 12:58:58;;;;;;;14.18;3.60;;;;;;;;;;5040510;28;20252;-71
2021/03/26 13:01:44;;;;;;;7.75;3.13;;;;;;;;;;5032664;28;20220;-70
2021/03/26 13:04:37;;;;;;;7.97;3.30;;;;;;;;;;5047061;28;20197;-69
2021/03/26 13:07:17;;;;;;;6.75;2.90;;;;;;;;;;5032595;28;20218;-70
2021/03/26 13:10:04;;;;;;;11.77;3.50;;;;;;;;;;5039719;28;20201;-70
2021/03/26 13:12:35;;;;;;;9.73;3.33;;;;;;;;;;5032788;28;20194;-70
2021/03/26 13:15:27;;;;;;;8.00;3.38;;;;;;;;;;5036503;28;20631;-71
2021/03/26 13:18:09;;;;;;;8.02;3.28;;;;;;;;;;5036134;28;20185;-69
2021/03/26 13:20:53;;;;;;;9.15;3.20;;;;;;;;;;5041019;28;20194;-71
2021/03/26 13:23:23;;;;;;;10.80;3.50;;;;;;;;;;5036106;28;20201;-71
2021/03/26 13:26:00;;;;;;;11.50;3.47;;;;;;;;;;5039260;28;20247;-72
2021/03/26 13:28:30;;;;;;;8.48;3.35;;;;;;;;;;5036072;28;20736;-71
2021/03/26 13:31:05;;;;;;;12.20;3.72;;;;;;;;;;5038758;28;20186;-71
2021/03/26 13:33:45;;;;;;;8.23;3.33;;;;;;;;;;5029658;28;20210;-72
2021/03/26 13:36:22;;;;;;;6.28;3.40;;;;;;;;;;5039571;28;20180;-71
2021/03/26 13:39:01;;;;;;;8.40;3.55;;;;;;;;;;5026741;28;20634;-71
2021/03/26 13:41:40;;;;;;;8.57;3.85;;;;;;;;;;5036947;28;20174;-71
2021/03/26 13:44:15;;;;;;;11.25;4.30;;;;;;;;;;5027509;28;20687;-72
2021/03/26 13:46:44;;;;;;;8.48;3.72;;;;;;;;;;5037947;28;20232;-72
2021/03/26 13:49:18;;;;;;;8.80;3.70;;;;;;;;;;5029272;28;20197;-72
2021/03/26 13:51:47;;;;;;;9.55;3.50;;;;;;;;;;5035674;28;20185;-72
2021/03/26 13:54:18;;;;;;;7.30;3.42;;;;;;;;;;5028323;28;20643;-72
2021/03/26 13:56:50;;;;;;;8.98;3.40;;;;;;;;;;5039376;28;20588;-70
2021/03/26 13:59:39;;;;;;;8.35;4.10;;;;;;;;;;5027309;28;20280;-71
2021/03/26 14:02:17;;;;;;;9.05;3.50;;;;;;;;;;5032016;28;20189;-70
2021/03/26 14:04:57;;;;;;;8.52;4.43;;;;;;;;;;5028013;28;20562;-70
2021/03/26 14:07:30;;;;;;;9.85;3.97;;;;;;;;;;5031447;28;20233;-70
2021/03/26 14:10:01;;;;;;;9.57;3.38;;;;;;;;;;5028220;28;20246;-70
2021/03/26 14:12:30;;;;;;;7.93;3.65;;;;;;;;;;5035073;28;20181;-71
2021/03/26 14:15:01;;;;;;;13.00;3.70;;;;;;;;;;5024026;28;21786;-71
2021/03/26 14:17:35;;;;;;;7.82;3.72;;;;;;;;;;5037294;28;20596;-71
2021/03/26 14:20:27;;;;;;;10.97;3.70;;;;;;;;;;4919899;28;10000600;-71
2021/03/26 14:23:00;;;;;;;9.50;4.20;;;;;;;;;;5040271;28;20792;-71
2021/03/26 14:25:32;;;;;;;7.97;3.53;;;;;;;;;;5023313;28;20218;-71
2021/03/26 14:28:22;;;;;;;9.10;3.83;;;;;;;;;;5038431;28;20260;-71
2021/03/26 14:30:55;;;;;;;7.60;3.78;;;;;;;;;;5026811;28;20641;-70
2021/03/26 14:33:29;;;;;;;8.63;4.00;;;;;;;;;;5030385;28;20300;-70
2021/03/26 14:36:13;;;;;;;8.05;3.78;;;;;;;;;;5029008;28;20192;-71
2021/03/26 14:38:47;;;;;;;7.78;3.88;;;;;;;;;;5037774;28;20596;-71
2021/03/26 14:41:39;;;;;;;9.27;4.68;;;;;;;;;;5028608;28;20196;-71
2021/03/26 14:44:10;;;;;;;7.00;4.00;;;;;;;;;;5034795;28;20522;-71
2021/03/26 14:46:48;;;;;;;10.68;4.15;;;;;;;;;;5030666;28;20232;-71
2021/03/26 14:49:36;;;;;;;9.60;4.10;;;;;;;;;;5034209;28;20188;-71
2021/03/26 14:52:05;;;;;;;7.38;4.32;;;;;;;;;;5038574;28;20201;-70
2021/03/26 14:54:38;;;;;;;8.52;3.90;;;;;;;;;;5043122;28;20644;-72
2021/03/26 14:57:17;;;;;;;9.05;4.22;;;;;;;;;;5032809;28;20182;-71
2021/03/26 14:59:55;;;;;;;11.00;4.18;;;;;;;;;;5038130;28;20193;-71
2021/03/26 15:02:23;;;;;;;10.32;4.30;;;;;;;;;;5024474;28;20235;-71
2021/03/26 15:04:53;;;;;;;8.65;4.20;;;;;;;;;;5036761;28;20248;-71
2021/03/26 15:07:27;;;;;;;13.40;4.70;;;;;;;;;;5031409;28;20185;-71
2021/03/26 15:09:55;;;;;;;11.65;4.30;;;;;;;;;;5034501;28;20197;-71
2021/03/26 15:12:33;;;;;;;9.32;4.57;;;;;;;;;;5031059;28;20194;-71
2021/03/26 15:15:28;;;;;;;7.20;4.10;;;;;;;;;;5024646;28;20594;-72
2021/03/26 15:18:32;;;;;;;9.10;4.13;;;;;;;;;;5032404;28;20289;-71
2021/03/26 15:21:17;;;;;;;5.93;3.70;;;;;;;;;;5036462;28;20257;-71
2021/03/26 15:23:52;;;;;;;12.10;4.30;;;;;;;;;;5020533;28;20680;-71
2021/03/26 15:26:27;;;;;;;7.95;3.50;;;;;;;;;;5027445;28;20191;-71
2021/03/26 15:29:07;;;;;;;8.05;3.72;;;;;;;;;;5023575;28;20247;-70